Time;durP1;ratioP1;P1;durP2;ratioP2;P2;SDS_P1;SDS_P2;PMS_P1;PMS_P2;Temp;Humidity;BMP_temperature;BMP_pressure;BME280_temperature;BME280_humidity;BME280_pressure;Samples;Min_cycle;Max_cycle;Signal;HPM_P1;HPM_P2
2022/09/12 00:01:14;;;;;;;21.83;18.60;;;;;;;13.12;95.93;101549.09;4969207;28;20066;-83
2022/09/12 00:03:40;;;;;;;23.27;18.70;;;;;;;13.06;96.09;101532.50;4966921;28;20046;-83
2022/09/12 00:06:11;;;;;;;26.35;18.92;;;;;;;13.07;96.03;101539.56;4969149;28;20375;-83
2022/09/12 00:08:37;;;;;;;23.08;18.88;;;;;;;13.04;96.40;101529.03;4968453;28;20045;-83
2022/09/12 00:11:06;;;;;;;24.63;19.23;;;;;;;13.00;96.28;101530.13;4968127;28;20027;-83
2022/09/12 00:13:31;;;;;;;23.33;19.38;;;;;;;12.95;96.52;101523.22;4965805;28;20065;-83
2022/09/12 00:15:56;;;;;;;24.52;20.08;;;;;;;12.89;96.19;101518.19;4964469;28;20455;-83
2022/09/12 00:18:21;;;;;;;24.27;19.92;;;;;;;12.81;96.64;101515.03;4957419;28;20484;-83
2022/09/12 00:20:47;;;;;;;26.05;20.00;;;;;;;12.80;96.69;101518.66;4966314;28;20026;-83
2022/09/12 00:23:13;;;;;;;26.75;19.88;;;;;;;12.81;97.00;101517.69;4965183;28;20346;-83
2022/09/12 00:25:46;;;;;;;25.58;19.30;;;;;;;12.82;97.33;101522.09;4963273;28;20023;-83
2022/09/12 00:28:12;;;;;;;24.40;19.67;;;;;;;12.81;97.05;101523.03;4968463;28;20035;-83
2022/09/12 00:30:46;;;;;;;24.25;18.73;;;;;;;12.79;96.91;101519.59;4968346;28;20030;-83
2022/09/12 00:33:13;;;;;;;24.63;19.50;;;;;;;12.74;96.71;101516.25;4966446;28;20070;-83
2022/09/12 00:35:47;;;;;;;25.30;19.35;;;;;;;12.68;97.02;101509.44;4968239;28;20053;-83
2022/09/12 00:38:15;;;;;;;24.02;20.15;;;;;;;12.71;97.42;101511.09;4965794;28;20113;-83
2022/09/12 00:40:41;;;;;;;22.85;19.33;;;;;;;12.66;96.78;101510.44;4968585;28;20039;-83
2022/09/12 00:43:13;;;;;;;20.30;17.92;;;;;;;12.63;97.18;101514.13;4967345;28;20026;-82
2022/09/12 00:45:41;;;;;;;21.45;17.58;;;;;;;12.60;97.62;101516.09;4964997;28;20031;-83
2022/09/12 00:48:20;;;;;;;22.85;17.52;;;;;;;12.57;97.59;101511.75;4969852;28;20034;-83
2022/09/12 00:50:45;;;;;;;21.13;17.05;;;;;;;12.56;97.09;101503.81;4967473;28;20038;-83
2022/09/12 00:53:11;;;;;;;24.83;17.52;;;;;;;12.49;97.33;101502.38;4948644;28;20149;-83
2022/09/12 00:55:47;;;;;;;21.67;17.83;;;;;;;12.48;97.37;101501.50;4968447;28;20468;-83
2022/09/12 00:58:18;;;;;;;21.92;18.30;;;;;;;12.47;97.42;101499.78;4967249;28;20125;-83
2022/09/12 01:00:46;;;;;;;22.83;18.65;;;;;;;12.43;97.39;101499.06;4967344;28;20392;-83
2022/09/12 01:03:15;;;;;;;23.35;18.10;;;;;;;12.42;97.28;101497.34;4967000;28;20106;-83
2022/09/12 01:06:16;;;;;;;24.10;19.02;;;;;;;12.41;96.83;101490.25;4966990;28;20492;-83
2022/09/12 01:08:43;;;;;;;24.98;19.27;;;;;;;12.39;97.35;101492.16;4961556;28;20035;-83
2022/09/12 01:11:10;;;;;;;24.45;18.90;;;;;;;12.38;97.35;101490.41;4968236;28;20094;-83
2022/09/12 01:13:36;;;;;;;25.77;19.77;;;;;;;12.33;97.53;101475.53;4962286;28;20121;-83
2022/09/12 01:16:04;;;;;;;23.08;18.65;;;;;;;12.34;97.68;101477.31;4967835;28;20137;-83
2022/09/12 01:18:41;;;;;;;24.00;19.88;;;;;;;12.34;97.89;101488.84;4948971;28;20039;-83
2022/09/12 01:21:29;;;;;;;26.23;20.00;;;;;;;12.32;97.91;101476.50;4967767;28;20031;-83
2022/09/12 01:24:30;;;;;;;25.27;20.80;;;;;;;12.29;97.90;101485.53;4962552;28;20035;-83
2022/09/12 01:27:01;;;;;;;28.20;21.60;;;;;;;12.26;98.20;101480.34;4965133;28;20420;-83
2022/09/12 01:30:04;;;;;;;28.17;21.23;;;;;;;12.23;98.45;101472.47;4968299;28;20086;-83
2022/09/12 01:32:51;;;;;;;24.70;18.98;;;;;;;12.22;98.25;101478.75;4966212;28;20042;-83
2022/09/12 01:35:31;;;;;;;28.10;19.73;;;;;;;12.17;98.42;101470.09;4968055;28;20396;-83
2022/09/12 01:38:23;;;;;;;26.27;20.70;;;;;;;12.17;98.32;101467.44;4951741;28;20384;-83
2022/09/12 01:41:19;;;;;;;25.65;20.85;;;;;;;12.11;98.38;101455.22;4966140;28;20034;-83
2022/09/12 01:43:55;;;;;;;26.58;21.00;;;;;;;12.04;98.24;101460.91;4982132;28;20085;-83
2022/09/12 01:46:30;;;;;;;26.95;21.35;;;;;;;12.06;98.47;101461.72;4970238;28;20027;-83
2022/09/12 01:49:10;;;;;;;27.58;21.52;;;;;;;12.05;98.67;101457.34;4969904;28;20073;-82
2022/09/12 01:51:41;;;;;;;25.48;21.70;;;;;;;12.06;99.12;101451.91;4971820;28;20126;-83
2022/09/12 01:54:22;;;;;;;25.65;20.55;;;;;;;12.02;98.98;101450.34;4969034;28;20038;-83
2022/09/12 01:56:52;;;;;;;26.83;19.83;;;;;;;12.02;98.63;101449.47;4970237;28;20050;-83
2022/09/12 01:59:27;;;;;;;22.75;18.33;;;;;;;11.98;98.96;101447.88;4971519;28;20513;-83
2022/09/12 02:02:02;;;;;;;22.00;17.60;;;;;;;11.90;98.70;101451.75;4985318;28;20035;-82
2022/09/12 02:04:40;;;;;;;24.30;18.58;;;;;;;11.90;99.03;101442.91;4969775;28;20110;-82
2022/09/12 02:07:19;;;;;;;23.02;19.20;;;;;;;11.88;98.94;101437.66;4973307;28;20058;-82
2022/09/12 02:09:53;;;;;;;22.85;18.52;;;;;;;11.87;99.29;101446.59;4974512;28;20069;-82
2022/09/12 02:12:25;;;;;;;23.80;20.20;;;;;;;11.82;98.89;101443.22;4969315;28;20026;-82
2022/09/12 02:14:57;;;;;;;25.15;20.17;;;;;;;11.81;99.05;101444.16;4974987;28;20113;-82
2022/09/12 02:17:25;;;;;;;24.90;20.05;;;;;;;11.76;99.09;101435.53;4977863;28;20034;-82
2022/09/12 02:19:56;;;;;;;25.60;19.75;;;;;;;11.77;99.02;101436.38;4975127;28;20456;-82
2022/09/12 02:22:25;;;;;;;27.02;19.52;;;;;;;11.75;98.80;101440.94;4965761;28;20110;-82
2022/09/12 02:24:55;;;;;;;25.73;19.35;;;;;;;11.74;99.41;101440.03;4976887;28;20374;-82
2022/09/12 02:27:26;;;;;;;25.05;20.45;;;;;;;11.70;99.47;101434.00;4973276;28;20059;-83
2022/09/12 02:29:52;;;;;;;23.95;19.77;;;;;;;11.71;99.48;101430.41;4971487;28;20034;-82
2022/09/12 02:32:28;;;;;;;28.15;22.08;;;;;;;11.70;99.86;101433.13;4971426;28;20034;-83
2022/09/12 02:35:10;;;;;;;29.17;21.35;;;;;;;11.72;100.00;101432.13;4959492;28;20491;-83
2022/09/12 02:37:51;;;;;;;31.95;22.13;;;;;;;11.72;100.00;101428.59;4969231;28;20424;-83
2022/09/12 02:40:17;;;;;;;31.35;22.88;;;;;;;11.74;100.00;101434.69;4945038;28;20142;-83
2022/09/12 02:42:43;;;;;;;27.95;23.00;;;;;;;11.74;100.00;101437.38;4968769;28;20596;-83
2022/09/12 02:45:09;;;;;;;29.10;22.23;;;;;;;11.72;100.00;101436.59;4971852;28;20034;-84
2022/09/12 02:47:42;;;;;;;29.15;22.25;;;;;;;11.73;100.00;101432.97;4971691;28;20556;-83
2022/09/12 02:50:07;;;;;;;30.48;23.08;;;;;;;11.72;100.00;101441.94;4972994;28;20130;-81
2022/09/12 02:52:34;;;;;;;29.35;22.70;;;;;;;11.71;100.00;101434.88;4948573;28;20054;-81
2022/09/12 02:55:01;;;;;;;30.85;23.42;;;;;;;11.68;100.00;101427.00;4955051;28;20061;-82
2022/09/12 02:57:26;;;;;;;30.35;23.15;;;;;;;11.68;100.00;101419.00;4981485;28;20058;-82
2022/09/12 02:59:55;;;;;;;31.08;23.35;;;;;;;11.67;100.00;101419.94;4968048;28;20058;-82
2022/09/12 03:02:39;;;;;;;29.95;22.92;;;;;;;11.68;100.00;101419.00;4982611;28;20400;-82
2022/09/12 03:05:20;;;;;;;;;;;;;;;11.72;99.53;101421.47;4973667;28;20477;-82
2022/09/12 03:08:01;;;;;;;30.63;23.35;;;;;;;11.67;100.00;101411.94;4964268;28;19918;-82
2022/09/12 03:10:36;;;;;;;29.23;22.40;;;;;;;11.66;100.00;101410.19;4970567;28;20651;-82
2022/09/12 03:13:24;;;;;;;30.83;23.48;;;;;;;11.65;100.00;101401.34;4964961;28;20440;-82
2022/09/12 03:16:28;;;;;;;34.05;24.20;;;;;;;11.65;100.00;101411.13;4976187;28;20038;-82
2022/09/12 03:19:22;;;;;;;31.25;24.73;;;;;;;11.64;100.00;101407.63;4873229;29;20036;-82
2022/09/12 03:22:15;;;;;;;30.63;23.58;;;;;;;11.62;100.00;101403.28;4870478;29;20033;-82
2022/09/12 03:25:03;;;;;;;31.75;23.85;;;;;;;11.62;100.00;101401.50;4863229;29;20578;-82
2022/09/12 03:27:35;;;;;;;31.92;23.48;;;;;;;11.61;100.00;101405.06;4870409;29;20095;-82
2022/09/12 03:30:06;;;;;;;32.28;24.38;;;;;;;11.58;100.00;101402.56;4867000;29;20075;-82
2022/09/12 03:32:43;;;;;;;30.58;23.95;;;;;;;11.58;100.00;101402.56;4856264;29;20036;-82
2022/09/12 03:35:10;;;;;;;31.23;24.13;;;;;;;11.56;100.00;101398.25;4858287;29;20042;-81
2022/09/12 03:37:35;;;;;;;31.88;24.05;;;;;;;11.61;100.00;101404.22;4850311;29;20188;-82
2022/09/12 03:40:03;;;;;;;32.67;24.27;;;;;;;11.61;100.00;101409.53;4846974;29;20049;-82
2022/09/12 03:42:28;;;;;;;32.08;24.30;;;;;;;11.58;100.00;101397.25;4845657;29;20049;-82
2022/09/12 03:44:53;;;;;;;31.30;24.20;;;;;;;11.54;100.00;101395.66;4858550;29;20173;-82
2022/09/12 03:47:19;;;;;;;32.10;24.58;;;;;;;11.59;100.00;101406.09;4846325;29;20124;-83
2022/09/12 03:49:45;;;;;;;31.08;23.33;;;;;;;11.57;100.00;101402.63;4901073;28;20075;-83
2022/09/12 03:52:11;;;;;;;33.75;25.25;;;;;;;11.57;100.00;101403.50;4950072;28;20027;-82
2022/09/12 03:54:36;;;;;;;32.97;25.23;;;;;;;11.56;100.00;101395.56;4969104;28;20472;-83
2022/09/12 03:57:01;;;;;;;34.22;24.67;;;;;;;11.54;100.00;101393.00;4953463;28;20443;-82
2022/09/12 03:59:27;;;;;;;33.35;24.58;;;;;;;11.55;100.00;101393.84;4969731;28;20035;-83
2022/09/12 04:01:52;;;;;;;35.63;25.10;;;;;;;11.54;100.00;101400.13;4967113;28;20030;-83
2022/09/12 04:04:17;;;;;;;34.05;25.60;;;;;;;11.53;100.00;101393.03;4969331;28;20031;-82
2022/09/12 04:06:42;;;;;;;34.90;25.60;;;;;;;11.50;100.00;101385.22;4951367;28;20031;-82
2022/09/12 04:09:08;;;;;;;34.55;25.65;;;;;;;11.51;100.00;101384.25;4951939;28;20026;-83
2022/09/12 04:11:34;;;;;;;32.47;24.55;;;;;;;11.51;100.00;101387.78;4967818;28;20037;-83
2022/09/12 04:14:00;;;;;;;38.33;25.67;;;;;;;11.50;100.00;101382.53;4969277;28;20429;-83
2022/09/12 04:16:25;;;;;;;37.78;26.23;;;;;;;11.48;100.00;101387.91;4967672;28;20130;-82
2022/09/12 04:18:50;;;;;;;35.17;24.80;;;;;;;11.44;100.00;101383.66;4968909;28;20088;-83
2022/09/12 04:21:18;;;;;;;37.28;25.83;;;;;;;11.44;100.00;101384.53;4966265;28;20073;-83
2022/09/12 04:23:44;;;;;;;35.63;26.20;;;;;;;11.44;100.00;101383.66;4965201;28;20105;-82
2022/09/12 04:26:10;;;;;;;37.17;25.85;;;;;;;11.44;100.00;101378.34;4968569;28;20030;-83
2022/09/12 04:28:37;;;;;;;35.33;25.65;;;;;;;11.42;100.00;101374.91;4969890;28;20022;-83
2022/09/12 04:31:08;;;;;;;40.17;26.55;;;;;;;11.41;100.00;101374.03;4967476;28;20027;-83
2022/09/12 04:33:34;;;;;;;37.78;26.08;;;;;;;11.42;100.00;101375.75;4967414;28;20085;-83
2022/09/12 04:36:08;;;;;;;41.42;26.20;;;;;;;11.43;100.00;101377.47;4966491;28;20042;-83
2022/09/12 04:38:35;;;;;;;36.60;25.67;;;;;;;11.39;100.00;101365.22;4976632;28;20047;-83
2022/09/12 04:41:00;;;;;;;36.72;26.65;;;;;;;11.43;100.00;101369.47;4970939;28;20045;-83
2022/09/12 04:43:25;;;;;;;36.70;26.13;;;;;;;11.43;100.00;101356.16;4988118;28;20425;-81
2022/09/12 04:45:51;;;;;;;40.55;28.10;;;;;;;11.48;100.00;101367.47;4969765;28;20023;-82
2022/09/12 04:48:16;;;;;;;33.50;24.38;;;;;;;11.50;100.00;101362.06;4969503;28;20384;-82
2022/09/12 04:50:41;;;;;;;38.33;25.88;;;;;;;11.47;100.00;101360.41;4966290;28;20057;-82
2022/09/12 04:53:07;;;;;;;37.88;26.75;;;;;;;11.50;100.00;101356.75;4968156;28;20480;-82
2022/09/12 04:55:34;;;;;;;34.78;24.55;;;;;;;11.51;100.00;101357.59;4968487;28;20034;-82
2022/09/12 04:58:00;;;;;;;38.38;26.35;;;;;;;11.50;100.00;101350.56;4967891;28;20037;-82
2022/09/12 05:00:26;;;;;;;36.13;25.90;;;;;;;11.52;100.00;101352.19;4966998;28;20093;-82
2022/09/12 05:02:51;;;;;;;36.55;25.67;;;;;;;11.51;100.00;101346.94;4982253;28;20034;-83
2022/09/12 05:05:16;;;;;;;37.50;26.48;;;;;;;11.52;100.00;101354.84;4966944;28;20033;-83
2022/09/12 05:07:42;;;;;;;38.35;25.95;;;;;;;11.53;100.00;101351.25;4967363;28;20023;-83
2022/09/12 05:10:08;;;;;;;36.45;25.58;;;;;;;11.52;100.00;101348.66;4968185;28;20062;-83
2022/09/12 05:12:34;;;;;;;34.97;24.80;;;;;;;11.54;100.00;101360.13;4966933;28;20039;-83
2022/09/12 05:14:59;;;;;;;36.83;25.35;;;;;;;11.51;100.00;101361.13;4968584;28;20058;-81
2022/09/12 05:17:27;;;;;;;36.70;25.73;;;;;;;11.53;100.00;101366.38;4970761;28;20504;-83
2022/09/12 05:19:52;;;;;;;38.97;25.95;;;;;;;11.56;100.00;101366.25;4967189;28;20043;-83
2022/09/12 05:22:18;;;;;;;39.25;28.05;;;;;;;11.58;100.00;101369.69;4972258;28;20031;-83
2022/09/12 05:24:43;;;;;;;38.50;25.50;;;;;;;11.61;100.00;101365.09;4973876;28;20121;-84
2022/09/12 05:27:09;;;;;;;36.00;26.30;;;;;;;11.59;100.00;101360.78;4974067;28;20030;-83
2022/09/12 05:29:34;;;;;;;39.05;26.17;;;;;;;11.62;100.00;101356.19;4987908;28;20030;-84
2022/09/12 05:32:00;;;;;;;36.30;25.10;;;;;;;11.69;100.00;101373.59;4982502;28;20723;-83
2022/09/12 05:34:26;;;;;;;38.78;26.38;;;;;;;11.71;100.00;101362.88;4987437;28;20069;-84
2022/09/12 05:36:52;;;;;;;38.63;26.38;;;;;;;11.75;100.00;101355.59;5004211;28;20058;-83
2022/09/12 05:39:17;;;;;;;38.97;26.70;;;;;;;11.79;100.00;101367.81;4978762;28;20034;-84
2022/09/12 05:41:43;;;;;;;36.53;26.35;;;;;;;11.78;100.00;101364.28;4976858;28;20054;-84
2022/09/12 05:44:12;;;;;;;38.10;26.40;;;;;;;11.85;100.00;101362.25;4966007;28;20058;-84
2022/09/12 05:46:40;;;;;;;37.30;25.35;;;;;;;11.89;100.00;101367.34;4967644;28;20027;-83
2022/09/12 05:49:08;;;;;;;35.33;26.40;;;;;;;11.91;100.00;101368.16;4970444;28;20031;-84
2022/09/12 05:51:37;;;;;;;39.83;27.05;;;;;;;11.99;100.00;101367.75;4964277;28;20030;-84
2022/09/12 05:54:05;;;;;;;37.85;26.08;;;;;;;12.01;100.00;101373.91;4981877;28;20070;-83
2022/09/12 05:56:32;;;;;;;37.58;26.25;;;;;;;12.10;100.00;101375.25;4967721;28;20038;-84
2022/09/12 05:59:03;;;;;;;38.80;26.67;;;;;;;12.15;100.00;101373.22;4984880;28;20030;-84
2022/09/12 06:01:30;;;;;;;40.75;27.60;;;;;;;12.18;100.00;101370.41;4962051;28;20045;-83
2022/09/12 06:03:59;;;;;;;38.15;26.58;;;;;;;12.28;100.00;101382.34;4970091;28;20027;-84
2022/09/12 06:06:26;;;;;;;38.38;27.27;;;;;;;12.32;100.00;101383.06;4982420;28;20468;-84
2022/09/12 06:08:55;;;;;;;38.95;26.60;;;;;;;12.35;100.00;101386.44;4965556;28;20027;-84
2022/09/12 06:11:27;;;;;;;39.10;26.90;;;;;;;12.40;100.00;101391.56;4968573;28;20153;-84
2022/09/12 06:13:54;;;;;;;38.67;27.08;;;;;;;12.37;100.00;101383.69;4968309;28;21363;-84
2022/09/12 06:16:22;;;;;;;35.40;26.83;;;;;;;12.46;100.00;101402.81;4970868;28;20054;-85
2022/09/12 06:18:49;;;;;;;37.97;26.95;;;;;;;12.49;100.00;101398.25;4982249;28;20199;-84
2022/09/12 06:21:15;;;;;;;36.60;27.33;;;;;;;12.51;100.00;101399.06;4982658;28;20026;-84
2022/09/12 06:23:41;;;;;;;36.17;26.88;;;;;;;12.57;100.00;101399.59;4982976;28;20154;-84
2022/09/12 06:26:09;;;;;;;35.28;25.70;;;;;;;12.58;100.00;101396.00;4970748;28;20089;-84
2022/09/12 06:28:36;;;;;;;34.45;26.13;;;;;;;12.58;100.00;101400.44;4969358;28;20104;-84
2022/09/12 06:31:03;;;;;;;32.83;24.55;;;;;;;12.57;100.00;101391.56;4968873;28;20031;-85
2022/09/12 06:33:30;;;;;;;34.08;24.92;;;;;;;12.54;100.00;101389.09;4965659;28;20031;-82
2022/09/12 06:36:02;;;;;;;32.47;24.60;;;;;;;12.55;100.00;101390.81;4961715;28;20035;-82
2022/09/12 06:38:27;;;;;;;35.97;26.13;;;;;;;12.52;100.00;101380.28;4940574;28;20039;-81
2022/09/12 06:40:53;;;;;;;33.70;25.63;;;;;;;12.57;100.00;101382.72;4953825;28;20097;-82
2022/09/12 06:43:18;;;;;;;36.85;24.80;;;;;;;12.65;100.00;101380.50;4956635;28;20035;-82
2022/09/12 06:45:48;;;;;;;36.58;25.55;;;;;;;12.77;100.00;101381.69;4965158;28;20023;-82
2022/09/12 06:48:13;;;;;;;36.97;26.05;;;;;;;12.91;100.00;101377.34;4961415;28;20030;-82
2022/09/12 06:50:38;;;;;;;32.40;25.30;;;;;;;13.08;100.00;101386.28;4969111;28;20416;-81
2022/09/12 06:53:04;;;;;;;31.63;25.27;;;;;;;13.28;100.00;101377.25;4967143;28;20036;-82
2022/09/12 06:55:29;;;;;;;35.00;25.85;;;;;;;13.54;100.00;101382.03;4949189;28;20082;-82
2022/09/12 06:57:54;;;;;;;35.15;25.85;;;;;;;13.88;100.00;101381.06;4948254;28;20130;-82
2022/09/12 07:00:20;;;;;;;29.45;23.23;;;;;;;14.34;100.00;101374.91;4966408;28;20504;-83
2022/09/12 07:02:45;;;;;;;30.20;23.67;;;;;;;14.69;97.99;101381.75;4960701;28;20061;-82
2022/09/12 07:05:10;;;;;;;30.17;22.85;;;;;;;15.20;97.32;101373.31;4968413;28;20023;-82
2022/09/12 07:07:35;;;;;;;27.85;21.58;;;;;;;15.61;93.51;101361.81;4967088;28;20023;-82
2022/09/12 07:10:01;;;;;;;26.17;20.83;;;;;;;15.71;90.99;101359.44;4967977;28;20632;-82
2022/09/12 07:12:28;;;;;;;24.00;20.15;;;;;;;15.66;90.26;101367.78;4968466;28;20023;-82
2022/09/12 07:14:53;;;;;;;26.33;20.63;;;;;;;15.56;90.43;101366.63;4964739;28;20080;-83
2022/09/12 07:17:19;;;;;;;24.33;20.02;;;;;;;15.44;90.19;101376.28;4961448;28;20114;-82
2022/09/12 07:19:44;;;;;;;25.85;20.88;;;;;;;15.29;91.33;101380.78;4957869;28;20030;-82
2022/09/12 07:22:09;;;;;;;24.50;19.30;;;;;;;15.25;92.10;101386.44;4968275;28;20593;-82
2022/09/12 07:24:36;;;;;;;27.52;20.73;;;;;;;15.33;92.82;101379.63;4966054;28;20434;-81
2022/09/12 07:27:01;;;;;;;24.33;20.45;;;;;;;15.48;92.22;101377.81;4967014;28;20038;-81
2022/09/12 07:29:26;;;;;;;26.17;21.38;;;;;;;15.57;91.15;101362.97;4967299;28;20039;-81
2022/09/12 07:31:52;;;;;;;28.17;21.42;;;;;;;15.67;91.29;101358.75;4959755;28;20031;-81
2022/09/12 07:34:17;;;;;;;24.58;20.70;;;;;;;15.68;90.04;101365.88;4948310;28;20030;-81
2022/09/12 07:36:43;;;;;;;28.02;21.23;;;;;;;15.64;89.50;101358.94;4965293;28;20047;-81
2022/09/12 07:39:08;;;;;;;25.33;21.33;;;;;;;15.69;90.39;101363.09;4968307;28;20287;-81
2022/09/12 07:41:33;;;;;;;25.23;20.52;;;;;;;16.11;90.34;101355.88;4967699;28;20027;-81
2022/09/12 07:44:00;;;;;;;25.70;20.25;;;;;;;16.83;87.31;101360.94;4967040;28;20019;-81
2022/09/12 07:46:28;;;;;;;26.48;19.73;;;;;;;17.59;84.70;101358.22;4963377;28;20392;-85
2022/09/12 07:48:56;;;;;;;25.13;19.20;;;;;;;18.28;80.96;101363.09;4968531;28;20039;-84
2022/09/12 07:51:23;;;;;;;20.98;18.48;;;;;;;18.91;78.99;101369.97;4965011;28;20133;-87
2022/09/12 07:53:49;;;;;;;21.00;18.20;;;;;;;19.51;75.68;101370.66;4967339;28;20026;-84
2022/09/12 07:56:15;;;;;;;22.50;18.02;;;;;;;20.06;74.28;101375.16;4963869;28;20085;-84
2022/09/12 07:58:41;;;;;;;19.65;16.75;;;;;;;20.59;70.86;101377.09;4963652;28;20520;-84
2022/09/12 08:01:10;;;;;;;23.50;19.30;;;;;;;21.01;68.07;101374.41;4966902;28;20035;-85
2022/09/12 08:03:36;;;;;;;18.55;16.55;;;;;;;21.24;67.25;101373.28;4967392;28;20039;-84
2022/09/12 08:06:06;;;;;;;17.88;15.93;;;;;;;21.60;66.16;101365.63;4964713;28;20031;-84
2022/09/12 08:08:32;;;;;;;17.13;15.27;;;;;;;22.04;65.28;101377.03;4969400;28;20428;-84
2022/09/12 08:11:04;;;;;;;17.83;15.93;;;;;;;22.38;64.53;101378.41;4980941;28;20037;-84
2022/09/12 08:13:29;;;;;;;18.35;16.08;;;;;;;22.77;62.35;101378.38;4971751;28;20035;-84
2022/09/12 08:15:59;;;;;;;18.45;14.80;;;;;;;22.99;62.01;101381.81;4965159;28;20045;-84
2022/09/12 08:18:27;;;;;;;18.00;16.08;;;;;;;23.36;60.55;101376.44;4965080;28;20033;-84
2022/09/12 08:21:01;;;;;;;17.20;15.38;;;;;;;23.72;60.66;101382.03;4969931;28;20030;-84
2022/09/12 08:23:29;;;;;;;19.98;16.10;;;;;;;24.17;57.20;101381.22;4967094;28;20039;-85
2022/09/12 08:25:56;;;;;;;17.15;14.82;;;;;;;24.49;54.25;101376.13;4965725;28;20042;-85
2022/09/12 08:28:23;;;;;;;20.65;18.08;;;;;;;24.79;54.51;101388.50;4970480;28;20038;-85
2022/09/12 08:30:49;;;;;;;16.27;13.65;;;;;;;25.23;52.76;101380.31;4969430;28;20027;-85
2022/09/12 08:33:14;;;;;;;15.63;14.02;;;;;;;25.60;52.11;101381.88;4970534;28;20023;-84
2022/09/12 08:35:40;;;;;;;16.13;14.43;;;;;;;25.97;51.00;101381.56;4953275;28;20034;-84
2022/09/12 08:38:05;;;;;;;15.68;14.10;;;;;;;26.03;50.95;101380.88;4982782;28;20086;-84
2022/09/12 08:40:40;;;;;;;17.30;14.48;;;;;;;26.13;49.08;101388.94;4980411;28;20027;-85
2022/09/12 08:43:35;;;;;;;16.23;14.48;;;;;;;26.49;50.58;101389.53;4982714;28;20090;-85
2022/09/12 08:46:26;;;;;;;16.25;14.55;;;;;;;26.90;48.58;101383.25;4977004;28;20038;-84
2022/09/12 08:48:54;;;;;;;16.63;14.98;;;;;;;27.02;47.71;101390.91;4968509;28;20109;-85
2022/09/12 08:51:19;;;;;;;14.55;13.05;;;;;;;27.54;47.13;101386.91;4967423;28;20026;-84
2022/09/12 08:53:48;;;;;;;13.13;11.38;;;;;;;28.13;45.70;101383.75;4963984;28;20034;-84
2022/09/12 08:56:15;;;;;;;15.15;13.25;;;;;;;28.67;44.23;101386.50;4963671;28;20052;-84
2022/09/12 08:58:43;;;;;;;13.27;11.98;;;;;;;29.31;43.83;101386.97;4963249;28;20524;-85
2022/09/12 09:01:29;;;;;;;13.43;12.02;;;;;;;29.80;44.18;101383.66;4964051;28;20037;-84
2022/09/12 09:04:19;;;;;;;14.05;11.45;;;;;;;30.21;42.06;101378.50;4960751;28;20023;-84
2022/09/12 09:07:16;;;;;;;12.77;10.27;;;;;;;30.85;42.19;101376.81;4962778;28;20039;-85
2022/09/12 09:10:08;;;;;;;10.38;8.90;;;;;;;31.24;39.81;101382.63;4950543;28;20410;-85
2022/09/12 09:12:36;;;;;;;10.32;9.05;;;;;;;31.63;37.55;101380.34;4969703;28;20031;-84
2022/09/12 09:15:20;;;;;;;11.70;9.45;;;;;;;31.79;39.12;101371.75;4966733;28;20107;-84
2022/09/12 09:18:09;;;;;;;9.55;8.63;;;;;;;32.16;37.80;101380.63;4968596;28;20114;-84
2022/09/12 09:20:50;;;;;;;9.60;8.70;;;;;;;32.68;37.79;101366.09;4965534;28;20046;-85
2022/09/12 09:23:21;;;;;;;9.90;9.00;;;;;;;32.91;35.81;101370.34;4965704;28;20026;-85
2022/09/12 09:25:55;;;;;;;8.25;7.30;;;;;;;33.34;32.58;101368.00;4967154;28;20411;-85
2022/09/12 09:28:45;;;;;;;8.60;7.13;;;;;;;33.74;36.31;101365.16;4972701;28;20903;-84
2022/09/12 09:31:15;;;;;;;7.32;6.63;;;;;;;33.83;33.69;101351.94;4969993;28;20042;-85
2022/09/12 09:33:42;;;;;;;7.18;6.22;;;;;;;34.04;32.38;101361.84;4963037;28;20073;-84
2022/09/12 09:36:19;;;;;;;7.07;6.38;;;;;;;34.10;32.24;101367.31;4957865;28;20027;-85
2022/09/12 09:38:54;;;;;;;7.05;6.13;;;;;;;34.15;31.75;101358.38;4968951;28;20043;-85
2022/09/12 09:42:01;;;;;;;7.20;6.05;;;;;;;34.81;33.75;101363.47;4961778;28;20026;-84
2022/09/12 09:44:30;;;;;;;6.80;6.10;;;;;;;35.00;30.47;101355.25;4968407;28;20501;-85
2022/09/12 09:46:58;;;;;;;10.15;9.07;;;;;;;35.25;29.30;101357.97;4963275;28;20451;-84
2022/09/12 09:49:27;;;;;;;7.05;6.35;;;;;;;35.75;28.58;101349.56;4966412;28;20624;-84
2022/09/12 09:51:52;;;;;;;14.98;12.10;;;;;;;35.84;28.04;101348.16;4967985;28;20527;-84
2022/09/12 09:54:23;;;;;;;6.45;5.80;;;;;;;36.10;27.92;101347.81;4967102;28;20027;-84
2022/09/12 09:56:48;;;;;;;5.47;4.97;;;;;;;36.37;27.85;101347.41;4964131;28;20027;-85
2022/09/12 09:59:29;;;;;;;6.53;5.82;;;;;;;36.49;28.13;101340.00;4966944;28;20085;-84
2022/09/12 10:02:02;;;;;;;5.03;4.50;;;;;;;36.68;26.77;101335.22;4966122;28;20046;-83
2022/09/12 10:04:33;;;;;;;5.50;4.95;;;;;;;37.03;26.86;101329.69;4965055;28;20070;-83
2022/09/12 10:07:01;;;;;;;6.77;4.60;;;;;;;37.25;25.72;101334.63;4968658;28;20045;-83
2022/09/12 10:09:29;;;;;;;4.60;4.20;;;;;;;37.14;26.14;101325.22;4969776;28;20028;-83
2022/09/12 10:11:56;;;;;;;4.90;4.38;;;;;;;37.67;25.16;101321.41;4951026;28;20027;-84
2022/09/12 10:14:30;;;;;;;5.63;5.00;;;;;;;38.26;25.18;101326.72;4970287;28;20101;-84
2022/09/12 10:16:56;;;;;;;6.53;5.60;;;;;;;38.07;24.54;101313.03;4966457;28;20034;-83
2022/09/12 10:19:37;;;;;;;5.40;4.90;;;;;;;38.36;25.66;101307.47;4971752;28;20035;-84
2022/09/12 10:22:04;;;;;;;5.47;5.07;;;;;;;38.24;24.33;101315.00;4968197;28;20138;-84
2022/09/12 10:24:38;;;;;;;6.55;5.13;;;;;;;38.41;24.43;101304.78;4967533;28;20116;-84
2022/09/12 10:27:12;;;;;;;4.60;4.20;;;;;;;38.49;25.34;101304.34;4965675;28;20058;-84
2022/09/12 10:29:48;;;;;;;4.20;3.80;;;;;;;38.70;24.50;101299.97;4966427;28;20467;-84
2022/09/12 10:32:22;;;;;;;5.40;4.85;;;;;;;38.34;24.36;101293.00;4969191;28;20441;-83
2022/09/12 10:34:52;;;;;;;4.50;4.10;;;;;;;38.34;24.20;101293.00;4966453;28;20038;-82
2022/09/12 10:38:01;;;;;;;4.55;3.63;;;;;;;38.90;25.69;101288.34;4969675;28;20047;-83
2022/09/12 10:40:31;;;;;;;5.38;4.88;;;;;;;38.47;23.31;101287.09;4952689;28;20041;-82
2022/09/12 10:42:59;;;;;;;5.97;5.38;;;;;;;38.13;24.75;101289.81;4969039;28;20068;-82
2022/09/12 10:45:37;;;;;;;4.80;4.40;;;;;;;38.11;26.56;101280.88;4965708;28;20039;-81
2022/09/12 10:48:22;;;;;;;5.30;4.80;;;;;;;38.86;25.36;101273.25;4962566;28;20035;-81
2022/09/12 10:50:47;;;;;;;4.97;4.47;;;;;;;39.17;22.58;101271.75;4970671;28;20038;-82
2022/09/12 10:53:22;;;;;;;5.83;4.53;;;;;;;39.75;23.83;101273.03;4969406;28;20030;-83
2022/09/12 10:56:01;;;;;;;5.65;4.93;;;;;;;39.89;24.32;101270.69;4964137;28;20373;-83
2022/09/12 10:58:32;;;;;;;4.15;3.75;;;;;;;40.08;21.97;101265.56;4968000;28;20023;-82
2022/09/12 11:01:10;;;;;;;4.25;3.70;;;;;;;40.47;23.13;101254.22;4969005;28;20046;-82
2022/09/12 11:03:49;;;;;;;4.20;3.20;;;;;;;40.88;22.48;101252.53;4962726;28;20444;-83
2022/09/12 11:06:24;;;;;;;4.47;3.03;;;;;;;40.98;21.29;101254.59;4964207;28;20042;-82
2022/09/12 11:09:08;;;;;;;3.92;3.10;;;;;;;40.53;21.03;101254.00;4964502;28;20039;-82
2022/09/12 11:11:42;;;;;;;4.10;2.85;;;;;;;40.23;21.36;101256.53;4972162;28;20113;-82
2022/09/12 11:14:35;;;;;;;3.30;3.00;;;;;;;40.47;22.52;101252.28;4967884;28;20388;-83
2022/09/12 11:17:11;;;;;;;3.80;3.42;;;;;;;41.01;21.21;101251.25;4967551;28;20086;-83
2022/09/12 11:20:10;;;;;;;4.43;2.83;;;;;;;41.23;20.15;101243.56;4961739;28;20035;-83
2022/09/12 11:22:35;;;;;;;3.63;2.85;;;;;;;41.11;19.99;101244.91;4962943;28;20090;-83
2022/09/12 11:25:06;;;;;;;3.20;3.00;;;;;;;41.17;18.73;101254.97;4965712;28;20029;-84
2022/09/12 11:27:47;;;;;;;4.30;3.90;;;;;;;41.12;19.97;101249.34;4969863;28;20392;-83